createdAt,value
2018-11-29T00:00:37.288Z,39.10
2018-11-29T00:03:03.431Z,39.10
2018-11-29T00:05:29.744Z,39.10
2018-11-29T00:07:55.986Z,39.10
2018-11-29T00:10:22.213Z,39.30
2018-11-29T00:12:48.372Z,39.20
2018-11-29T00:15:14.672Z,39.10
2018-11-29T00:17:40.892Z,39.00
2018-11-29T00:20:07.119Z,39.10
2018-11-29T00:22:33.350Z,39.10
2018-11-29T00:24:59.575Z,39.00
2018-11-29T00:27:25.802Z,39.10
2018-11-29T00:29:52.035Z,39.20
2018-11-29T00:32:18.256Z,39.40
2018-11-29T00:34:44.488Z,39.30
2018-11-29T00:37:10.715Z,39.40
2018-11-29T00:39:36.947Z,39.30
2018-11-29T00:42:03.167Z,39.30
2018-11-29T00:44:29.323Z,39.40
2018-11-29T00:46:55.627Z,39.30
2018-11-29T00:49:21.859Z,39.30
2018-11-29T00:51:48.079Z,39.30
2018-11-29T00:54:14.313Z,39.40
2018-11-29T00:56:40.547Z,39.40
2018-11-29T00:59:06.780Z,39.30
2018-11-29T01:01:33.014Z,39.30
2018-11-29T01:03:59.163Z,39.40
2018-11-29T01:06:25.452Z,39.30
2018-11-29T01:08:51.676Z,39.30
2018-11-29T01:11:17.905Z,39.30
2018-11-29T01:13:44.156Z,39.40
2018-11-29T01:16:10.365Z,39.40
2018-11-29T01:18:36.600Z,39.40
2018-11-29T01:21:02.828Z,39.40
2018-11-29T01:23:29.056Z,39.40
2018-11-29T01:25:55.273Z,39.40
2018-11-29T01:28:21.508Z,39.30
2018-11-29T01:30:47.738Z,39.40
2018-11-29T01:33:13.961Z,39.40
2018-11-29T01:35:40.195Z,39.40
2018-11-29T01:38:06.380Z,39.40
2018-11-29T01:40:33.473Z,39.60
2018-11-29T01:42:59.627Z,39.50
2018-11-29T01:45:25.923Z,39.50
2018-11-29T01:47:52.155Z,39.50
2018-11-29T01:50:18.386Z,39.60
2018-11-29T01:52:44.613Z,39.80
2018-11-29T01:55:10.764Z,39.70
2018-11-29T01:57:37.078Z,39.60
2018-11-29T02:00:03.295Z,39.70
2018-11-29T02:02:29.521Z,39.60
2018-11-29T02:04:55.748Z,39.60
2018-11-29T02:07:21.895Z,39.80
2018-11-29T02:09:48.208Z,39.70
2018-11-29T02:12:14.428Z,39.60
2018-11-29T02:14:40.668Z,39.60
2018-11-29T02:17:06.819Z,39.60
2018-11-29T02:19:33.121Z,39.70
2018-11-29T02:21:59.263Z,39.80
2018-11-29T02:24:25.411Z,39.80
2018-11-29T02:26:51.560Z,39.80
2018-11-29T02:29:18.635Z,39.80
2018-11-29T02:31:44.868Z,39.80
2018-11-29T02:34:11.101Z,39.80
2018-11-29T02:36:37.323Z,39.80
2018-11-29T02:39:03.477Z,39.80
2018-11-29T02:41:29.648Z,39.80
2018-11-29T02:43:56.016Z,40.50
2018-11-29T02:46:22.244Z,39.90
2018-11-29T02:48:48.475Z,39.90
2018-11-29T02:51:14.696Z,40.00
2018-11-29T02:53:40.919Z,40.00
2018-11-29T02:56:07.149Z,39.90
2018-11-29T02:58:33.301Z,40.00
2018-11-29T03:00:59.607Z,40.00
2018-11-29T03:03:25.842Z,40.20
2018-11-29T03:05:52.060Z,40.00
2018-11-29T03:08:18.289Z,40.00
2018-11-29T03:10:44.521Z,40.00
2018-11-29T03:13:10.753Z,40.10
2018-11-29T03:15:36.971Z,40.10
2018-11-29T03:18:03.199Z,40.00
2018-11-29T03:20:29.346Z,40.10
2018-11-29T03:22:55.496Z,40.20
2018-11-29T03:25:23.153Z,40.30
2018-11-29T03:27:49.352Z,40.20
2018-11-29T03:30:15.576Z,40.10
2018-11-29T03:32:41.848Z,40.10
2018-11-29T03:35:08.028Z,40.10
2018-11-29T03:37:34.276Z,40.10
2018-11-29T03:40:00.463Z,40.20
2018-11-29T03:42:26.711Z,40.10
2018-11-29T03:44:52.857Z,40.20
2018-11-29T03:47:19.020Z,40.10
2018-11-29T03:49:46.016Z,40.10
2018-11-29T03:52:12.239Z,40.10
2018-11-29T03:54:38.472Z,40.40
2018-11-29T03:57:04.697Z,40.30
2018-11-29T03:59:30.919Z,40.40
2018-11-29T04:01:57.156Z,40.40
2018-11-29T04:04:23.380Z,40.30
2018-11-29T04:06:49.612Z,40.30
2018-11-29T04:09:15.778Z,40.30
2018-11-29T04:11:41.936Z,40.40
2018-11-29T04:14:08.108Z,40.30
2018-11-29T04:16:34.267Z,40.40
2018-11-29T04:19:01.368Z,40.50
2018-11-29T04:21:27.523Z,40.50
2018-11-29T04:23:53.821Z,40.50
2018-11-29T04:26:20.061Z,40.50
2018-11-29T04:28:46.276Z,40.50
2018-11-29T04:31:12.511Z,40.50
2018-11-29T04:33:38.732Z,40.50
2018-11-29T04:36:04.971Z,40.70
2018-11-29T04:38:31.196Z,40.60
2018-11-29T04:40:57.348Z,40.60
2018-11-29T04:43:23.645Z,40.60
2018-11-29T04:45:49.788Z,40.70
2018-11-29T04:48:16.109Z,40.70
2018-11-29T04:50:42.252Z,40.70
2018-11-29T04:53:08.564Z,40.70
2018-11-29T04:55:34.788Z,40.80
2018-11-29T04:58:01.029Z,40.80
2018-11-29T05:00:27.244Z,40.70
2018-11-29T05:02:53.477Z,40.70
2018-11-29T05:05:19.704Z,40.70
2018-11-29T05:07:45.927Z,40.80
2018-11-29T05:10:12.153Z,40.80
2018-11-29T05:12:38.304Z,40.80
2018-11-29T05:15:04.608Z,40.90
2018-11-29T05:17:30.752Z,40.80
2018-11-29T05:19:57.069Z,40.80
2018-11-29T05:22:23.226Z,40.80
2018-11-29T05:24:49.526Z,40.80
2018-11-29T05:27:15.671Z,40.90
2018-11-29T05:29:41.823Z,40.90
2018-11-29T05:32:08.005Z,40.90
2018-11-29T05:34:34.237Z,40.90
2018-11-29T05:37:00.463Z,41.00
2018-11-29T05:39:26.683Z,41.00
2018-11-29T05:41:52.832Z,41.00
2018-11-29T05:44:19.145Z,41.10
2018-11-29T05:46:45.373Z,41.10
2018-11-29T05:49:11.600Z,41.00
2018-11-29T05:51:37.828Z,41.10
2018-11-29T05:54:04.061Z,41.10
2018-11-29T05:56:30.287Z,41.10
2018-11-29T05:58:56.423Z,41.10
2018-11-29T06:01:22.740Z,41.10
2018-11-29T06:03:48.985Z,41.10
2018-11-29T06:06:15.192Z,41.10
2018-11-29T06:08:41.429Z,41.10
2018-11-29T06:11:07.647Z,41.20
2018-11-29T06:13:33.885Z,41.20
2018-11-29T06:16:00.113Z,41.20
2018-11-29T06:18:26.335Z,41.20
2018-11-29T06:20:52.572Z,41.30
2018-11-29T06:23:18.801Z,41.30
2018-11-29T06:25:45.033Z,41.90
2018-11-29T06:28:11.256Z,41.30
2018-11-29T06:30:37.475Z,41.40
2018-11-29T06:33:03.706Z,41.40
2018-11-29T06:35:29.872Z,41.40
2018-11-29T06:37:56.162Z,41.40
2018-11-29T06:40:22.396Z,41.50
2018-11-29T06:42:48.610Z,41.40
2018-11-29T06:45:14.755Z,41.50
2018-11-29T06:47:41.073Z,41.50
2018-11-29T06:50:07.303Z,41.60
2018-11-29T06:52:33.524Z,41.40
2018-11-29T06:54:59.760Z,41.60
2018-11-29T06:57:25.992Z,41.40
2018-11-29T06:59:52.231Z,41.60
2018-11-29T07:02:18.452Z,41.50
2018-11-29T07:04:44.672Z,41.70
2018-11-29T07:07:10.905Z,41.70
2018-11-29T07:09:37.136Z,41.70
2018-11-29T07:12:03.352Z,41.70
2018-11-29T07:14:29.502Z,41.70
2018-11-29T07:16:55.808Z,41.80
2018-11-29T07:19:22.044Z,41.70
2018-11-29T07:21:48.272Z,41.70
2018-11-29T07:24:14.495Z,41.80
2018-11-29T07:26:40.652Z,41.70
2018-11-29T07:29:06.803Z,41.70
2018-11-29T07:31:33.176Z,41.70
2018-11-29T07:33:59.328Z,41.80
2018-11-29T07:36:25.501Z,41.80
2018-11-29T07:38:51.861Z,41.60
2018-11-29T07:41:18.015Z,41.60
2018-11-29T07:43:44.324Z,41.60
2018-11-29T07:46:10.550Z,41.70
2018-11-29T07:48:36.704Z,41.80
2018-11-29T07:51:02.999Z,41.80
2018-11-29T07:53:29.235Z,41.80
2018-11-29T07:55:55.475Z,41.80
2018-11-29T07:58:21.696Z,41.80
2018-11-29T08:00:47.916Z,41.80
2018-11-29T08:03:14.149Z,41.80
2018-11-29T08:05:40.372Z,42.00
2018-11-29T08:08:06.601Z,41.90
2018-11-29T08:10:32.741Z,42.10
2018-11-29T08:12:59.051Z,42.00
2018-11-29T08:15:25.209Z,41.80
2018-11-29T08:17:51.512Z,42.00
2018-11-29T08:20:17.739Z,41.90
2018-11-29T08:22:43.918Z,41.90
2018-11-29T08:25:10.201Z,42.00
2018-11-29T08:27:36.424Z,42.00
2018-11-29T08:30:02.655Z,42.00
2018-11-29T08:32:28.885Z,42.00
2018-11-29T08:34:55.107Z,42.00
2018-11-29T08:37:21.256Z,42.00
2018-11-29T08:39:47.572Z,42.10
2018-11-29T08:42:13.799Z,42.10
2018-11-29T08:44:39.969Z,42.10
2018-11-29T08:47:06.256Z,42.00
2018-11-29T08:49:32.485Z,42.10
2018-11-29T08:51:58.642Z,42.00
2018-11-29T08:54:24.936Z,42.10
2018-11-29T08:56:51.168Z,42.00
2018-11-29T08:59:17.392Z,42.00
2018-11-29T09:01:43.625Z,42.10
2018-11-29T09:04:09.844Z,42.20
2018-11-29T09:06:36.078Z,42.10
2018-11-29T09:09:02.301Z,42.10
2018-11-29T09:11:28.527Z,42.10
2018-11-29T09:13:54.764Z,42.10
2018-11-29T09:16:20.916Z,42.20
2018-11-29T09:18:47.216Z,42.10
2018-11-29T09:21:13.441Z,42.10
2018-11-29T09:23:39.672Z,42.20
2018-11-29T09:26:05.904Z,42.20
2018-11-29T09:28:32.131Z,42.10
2018-11-29T09:30:58.361Z,42.20
2018-11-29T09:33:24.589Z,42.30
2018-11-29T09:35:50.817Z,42.20
2018-11-29T09:38:17.040Z,42.10
2018-11-29T09:40:43.188Z,42.10
2018-11-29T09:43:09.336Z,42.10
2018-11-29T09:45:35.529Z,42.10
2018-11-29T09:48:01.724Z,42.30
2018-11-29T09:50:28.800Z,42.30
2018-11-29T09:52:55.044Z,42.20
2018-11-29T09:55:21.217Z,42.20
2018-11-29T09:57:48.301Z,42.20
2018-11-29T10:00:14.530Z,42.10
2018-11-29T10:02:40.756Z,42.20
2018-11-29T10:05:06.943Z,42.20
2018-11-29T10:07:34.040Z,42.10
2018-11-29T10:10:00.268Z,42.10
2018-11-29T10:12:26.419Z,42.10
2018-11-29T10:14:52.711Z,42.20
2018-11-29T10:17:18.940Z,42.20
2018-11-29T10:19:45.171Z,42.10
2018-11-29T10:22:11.404Z,42.20
2018-11-29T10:24:37.551Z,42.20
2018-11-29T10:27:03.699Z,42.10
2018-11-29T10:29:29.848Z,42.20
2018-11-29T10:31:56.924Z,42.20
2018-11-29T10:34:23.072Z,42.10
2018-11-29T10:36:49.383Z,42.20
2018-11-29T10:39:15.541Z,42.20
2018-11-29T10:41:41.707Z,42.20
2018-11-29T10:44:08.064Z,42.10
2018-11-29T10:46:34.297Z,42.20
2018-11-29T10:49:00.528Z,42.10
2018-11-29T10:51:26.754Z,42.20
2018-11-29T10:53:52.981Z,42.20
2018-11-29T10:56:19.217Z,42.10
2018-11-29T10:58:45.437Z,42.20
2018-11-29T11:01:11.668Z,42.30
2018-11-29T11:03:37.815Z,42.30
2018-11-29T11:06:04.129Z,42.20
2018-11-29T11:08:30.352Z,42.10
2018-11-29T11:10:56.575Z,42.30
2018-11-29T11:13:22.813Z,42.30
2018-11-29T11:15:49.036Z,42.30
2018-11-29T11:18:15.199Z,42.30
2018-11-29T11:20:41.483Z,42.30
2018-11-29T11:23:07.720Z,42.20
2018-11-29T11:25:33.953Z,42.20
2018-11-29T11:28:00.175Z,42.30
2018-11-29T11:30:26.404Z,42.20
2018-11-29T11:32:52.633Z,42.30
2018-11-29T11:35:18.857Z,42.30
2018-11-29T11:37:45.091Z,42.30
2018-11-29T11:40:11.244Z,42.30
2018-11-29T11:42:37.541Z,42.40
2018-11-29T11:45:03.766Z,42.40
2018-11-29T11:47:31.172Z,42.70
2018-11-29T11:49:56.233Z,42.60
2018-11-29T11:52:22.454Z,42.60
2018-11-29T11:54:48.605Z,42.50
2018-11-29T11:57:14.757Z,42.50
2018-11-29T11:59:40.944Z,42.50
2018-11-29T12:02:07.156Z,42.50
2018-11-29T12:04:33.328Z,42.50
2018-11-29T12:06:59.622Z,42.60
2018-11-29T12:09:25.848Z,43.20
2018-11-29T12:11:51.996Z,42.50
2018-11-29T12:14:18.304Z,42.60
2018-11-29T12:16:44.532Z,42.60
2018-11-29T12:19:10.672Z,42.60
2018-11-29T12:21:36.984Z,42.70
2018-11-29T12:24:03.212Z,42.60
2018-11-29T12:26:29.448Z,42.60
2018-11-29T12:28:55.698Z,43.30
2018-11-29T12:31:21.852Z,42.70
2018-11-29T12:33:48.124Z,42.80
2018-11-29T12:36:14.358Z,42.70
2018-11-29T12:38:40.525Z,42.70
2018-11-29T12:41:06.807Z,42.80
2018-11-29T12:43:32.969Z,42.90
2018-11-29T12:45:59.271Z,42.70
2018-11-29T12:48:25.502Z,42.80
2018-11-29T12:50:51.729Z,43.00
2018-11-29T12:53:17.960Z,43.10
2018-11-29T12:55:44.188Z,43.00
2018-11-29T12:58:10.405Z,43.20
2018-11-29T13:00:40.945Z,43.20
2018-11-29T13:05:33.233Z,43.30
2018-11-29T13:07:59.425Z,43.30
2018-11-29T13:10:25.575Z,43.40
2018-11-29T13:12:51.875Z,43.30
2018-11-29T13:15:18.187Z,43.40
2018-11-29T13:17:44.333Z,43.40
2018-11-29T13:20:10.564Z,43.40
2018-11-29T13:22:36.781Z,43.50
2018-11-29T13:25:02.948Z,43.60
2018-11-29T13:27:29.246Z,43.90
2018-11-29T13:29:55.479Z,44.20
2018-11-29T13:32:21.636Z,44.10
2018-11-29T13:34:47.928Z,44.10
2018-11-29T13:37:14.459Z,43.80
2018-11-29T13:39:40.388Z,43.70
2018-11-29T13:42:06.608Z,43.60
2018-11-29T13:44:33.040Z,43.80
2018-11-29T13:46:59.274Z,43.70
2018-11-29T13:49:25.429Z,43.50
2018-11-29T13:51:51.587Z,43.60
2018-11-29T13:54:17.748Z,43.50
2018-11-29T13:56:43.984Z,43.60
2018-11-29T13:59:10.208Z,43.50
2018-11-29T14:01:36.439Z,43.50
2018-11-29T14:04:02.596Z,43.40
2018-11-29T14:06:28.893Z,43.50
2018-11-29T14:08:55.128Z,43.50
2018-11-29T14:11:21.352Z,43.50
2018-11-29T14:13:47.581Z,43.40
2018-11-29T14:16:13.744Z,43.50
2018-11-29T14:18:40.036Z,43.50
2018-11-29T14:21:06.255Z,43.50
2018-11-29T14:23:32.400Z,43.50
2018-11-29T14:25:59.343Z,43.60
2018-11-29T14:28:25.528Z,43.60
2018-11-29T14:30:52.609Z,43.60
2018-11-29T14:33:18.752Z,43.60
2018-11-29T14:35:44.920Z,43.60
2018-11-29T14:38:11.093Z,43.60
2018-11-29T14:40:37.358Z,43.60
2018-11-29T14:43:05.191Z,43.60
2018-11-29T14:45:31.422Z,43.50
2018-11-29T14:47:57.635Z,43.50
2018-11-29T14:50:23.870Z,43.50
2018-11-29T14:52:50.101Z,43.50
2018-11-29T14:55:16.256Z,43.60
2018-11-29T14:57:42.552Z,43.40
2018-11-29T15:00:08.777Z,43.40
2018-11-29T15:02:35.016Z,43.50
2018-11-29T15:05:01.231Z,43.50
2018-11-29T15:07:27.404Z,43.50
2018-11-29T15:09:53.692Z,43.50
2018-11-29T15:12:19.831Z,43.50
2018-11-29T15:14:46.153Z,43.50
2018-11-29T15:17:12.304Z,43.50
2018-11-29T15:19:38.605Z,43.60
2018-11-29T15:22:04.839Z,43.50
2018-11-29T15:24:31.055Z,43.60
2018-11-29T15:26:57.292Z,43.60
2018-11-29T15:29:23.436Z,43.60
2018-11-29T15:31:49.750Z,43.70
2018-11-29T15:34:15.981Z,43.60
2018-11-29T15:36:43.197Z,43.60
2018-11-29T15:39:08.423Z,43.50
2018-11-29T15:41:34.655Z,43.60
2018-11-29T15:44:00.892Z,43.60
2018-11-29T15:46:27.116Z,43.50
2018-11-29T15:48:53.348Z,43.50
2018-11-29T15:51:19.567Z,43.60
2018-11-29T15:53:45.792Z,43.60
2018-11-29T15:56:12.029Z,43.60
2018-11-29T15:58:38.195Z,43.50
2018-11-29T16:01:04.480Z,43.50
2018-11-29T16:03:30.668Z,43.50
2018-11-29T16:05:57.755Z,43.50
2018-11-29T16:08:23.994Z,43.50
2018-11-29T16:10:50.216Z,43.50
2018-11-29T16:13:16.440Z,43.50
2018-11-29T16:15:42.672Z,43.40
2018-11-29T16:18:08.900Z,43.40
2018-11-29T16:20:35.127Z,43.40
2018-11-29T16:23:01.360Z,43.40
2018-11-29T16:25:27.521Z,43.40
2018-11-29T16:27:53.672Z,43.40
2018-11-29T16:30:20.041Z,43.40
2018-11-29T16:32:46.266Z,43.30
2018-11-29T16:35:12.491Z,43.30
2018-11-29T16:37:38.728Z,43.30
2018-11-29T16:40:04.963Z,43.30
2018-11-29T16:42:31.174Z,43.30
2018-11-29T16:44:57.347Z,43.30
2018-11-29T16:47:23.635Z,43.20
2018-11-29T16:49:49.859Z,43.90
2018-11-29T16:52:16.087Z,43.20
2018-11-29T16:54:42.232Z,43.30
2018-11-29T16:57:08.547Z,43.20
2018-11-29T16:59:34.702Z,43.10
2018-11-29T17:02:01.008Z,43.10
2018-11-29T17:04:27.233Z,43.20
2018-11-29T17:06:53.463Z,43.20
2018-11-29T17:09:19.620Z,43.20
2018-11-29T17:11:45.916Z,43.00
2018-11-29T17:14:12.063Z,43.10
2018-11-29T17:16:38.371Z,43.00
2018-11-29T17:19:04.520Z,43.00
2018-11-29T17:21:30.835Z,43.00
2018-11-29T17:23:57.055Z,43.10
2018-11-29T17:26:23.282Z,43.00
2018-11-29T17:28:49.526Z,43.00
2018-11-29T17:31:15.744Z,43.00
2018-11-29T17:33:41.971Z,43.00
2018-11-29T17:36:08.145Z,43.00
2018-11-29T17:38:34.432Z,43.00
2018-11-29T17:41:00.651Z,43.00
2018-11-29T17:43:26.884Z,42.90
2018-11-29T17:45:53.107Z,42.90
2018-11-29T17:48:19.341Z,42.80
2018-11-29T17:50:45.567Z,42.80
2018-11-29T17:53:11.796Z,42.80
2018-11-29T17:55:37.950Z,42.80
2018-11-29T17:58:04.263Z,42.80
2018-11-29T18:00:35.191Z,42.70
2018-11-29T18:03:01.420Z,42.70
2018-11-29T18:05:27.644Z,42.70
2018-11-29T18:07:53.875Z,42.70
2018-11-29T18:10:20.108Z,42.70
2018-11-29T18:12:46.260Z,42.70
2018-11-29T18:15:12.553Z,42.60
2018-11-29T18:17:38.725Z,42.70
2018-11-29T18:20:05.012Z,42.70
2018-11-29T18:22:31.250Z,42.70
2018-11-29T18:24:57.469Z,42.70
2018-11-29T18:27:23.696Z,42.70
2018-11-29T18:29:49.848Z,42.70
2018-11-29T18:32:16.160Z,42.70
2018-11-29T18:34:42.387Z,42.60
2018-11-29T18:37:08.536Z,42.60
2018-11-29T18:39:34.836Z,42.60
2018-11-29T18:42:01.063Z,42.60
2018-11-29T18:44:27.291Z,42.60
2018-11-29T18:46:53.524Z,42.60
2018-11-29T18:49:19.752Z,42.50
2018-11-29T18:51:45.985Z,42.50
2018-11-29T18:54:12.148Z,42.50
2018-11-29T18:56:38.305Z,42.60
2018-11-29T18:59:04.663Z,42.50
2018-11-29T19:01:30.893Z,42.60
2018-11-29T19:03:57.064Z,42.50
2018-11-29T19:06:24.173Z,42.50
2018-11-29T19:08:50.341Z,42.40
2018-11-29T19:11:16.620Z,42.50
2018-11-29T19:13:42.847Z,43.20
2018-11-29T19:16:08.995Z,42.50
2018-11-29T19:18:35.308Z,42.50
2018-11-29T19:21:01.524Z,42.50
2018-11-29T19:23:28.588Z,42.50
2018-11-29T19:25:54.807Z,42.40
2018-11-29T19:28:20.961Z,42.40
2018-11-29T19:30:47.275Z,42.30
2018-11-29T19:33:17.349Z,42.30
2018-11-29T19:35:39.732Z,42.30
2018-11-29T19:38:06.771Z,42.30
2018-11-29T19:40:32.942Z,42.30
2018-11-29T19:42:59.231Z,42.30
2018-11-29T19:45:25.461Z,42.30
2018-11-29T19:47:51.689Z,42.20
2018-11-29T19:50:17.912Z,42.30
2018-11-29T19:52:44.139Z,42.30
2018-11-29T19:55:10.372Z,42.30
2018-11-29T19:57:36.591Z,42.30
2018-11-29T20:00:02.783Z,42.30
2018-11-29T20:02:29.877Z,42.30
2018-11-29T20:04:56.100Z,42.30
2018-11-29T20:07:22.383Z,42.30
2018-11-29T20:09:50.187Z,42.20
2018-11-29T20:12:16.336Z,42.20
2018-11-29T20:14:42.651Z,42.30
2018-11-29T20:17:08.879Z,42.30
2018-11-29T20:19:35.108Z,42.20
2018-11-29T20:22:01.337Z,42.30
2018-11-29T20:24:27.565Z,42.20
2018-11-29T20:26:53.707Z,42.20
2018-11-29T20:29:20.024Z,42.30
2018-11-29T20:31:46.252Z,42.20
2018-11-29T20:34:12.494Z,42.20
2018-11-29T20:36:38.704Z,42.20
2018-11-29T20:39:04.860Z,42.20
2018-11-29T20:41:31.268Z,42.10
2018-11-29T20:43:58.214Z,42.10
2018-11-29T20:46:24.431Z,42.10
2018-11-29T20:48:50.672Z,42.10
2018-11-29T20:51:16.891Z,42.10
2018-11-29T20:53:43.124Z,42.10
2018-11-29T20:56:09.353Z,42.10
2018-11-29T20:58:35.576Z,42.10
2018-11-29T21:01:01.800Z,42.10
2018-11-29T21:03:27.951Z,42.10
2018-11-29T21:05:54.260Z,42.10
2018-11-29T21:08:20.488Z,42.00
2018-11-29T21:10:46.723Z,42.00
2018-11-29T21:13:12.943Z,42.00
2018-11-29T21:15:39.176Z,42.00
2018-11-29T21:18:05.400Z,42.00
2018-11-29T21:20:31.636Z,42.00
2018-11-29T21:22:57.783Z,42.00
2018-11-29T21:25:24.084Z,42.00
2018-11-29T21:27:50.320Z,42.00
2018-11-29T21:30:16.548Z,42.00
2018-11-29T21:32:42.814Z,41.90
2018-11-29T21:35:10.461Z,42.00
2018-11-29T21:37:36.664Z,41.90
2018-11-29T21:40:02.815Z,41.90
2018-11-29T21:42:29.120Z,41.90
2018-11-29T21:44:55.355Z,41.90
2018-11-29T21:47:21.572Z,41.90
2018-11-29T21:49:47.800Z,41.90
2018-11-29T21:52:14.024Z,41.90
2018-11-29T21:54:40.252Z,42.00
2018-11-29T21:57:06.489Z,41.90
2018-11-29T21:59:35.533Z,41.90
2018-11-29T22:01:59.767Z,41.90
2018-11-29T22:04:25.997Z,41.90
2018-11-29T22:06:52.148Z,41.90
2018-11-29T22:09:18.443Z,41.90
2018-11-29T22:11:44.675Z,41.90
2018-11-29T22:14:10.901Z,41.80
2018-11-29T22:16:37.128Z,41.80
2018-11-29T22:19:03.351Z,41.80
2018-11-29T22:21:29.495Z,41.90
2018-11-29T22:23:55.816Z,42.00
2018-11-29T22:26:21.960Z,42.00
2018-11-29T22:28:48.278Z,41.80
2018-11-29T22:31:14.493Z,41.80
2018-11-29T22:33:40.728Z,41.80
2018-11-29T22:36:06.879Z,41.90
2018-11-29T22:38:33.185Z,41.90
2018-11-29T22:40:59.340Z,41.90
2018-11-29T22:43:25.645Z,41.80
2018-11-29T22:45:51.867Z,41.90
2018-11-29T22:48:18.057Z,41.80
2018-11-29T22:50:44.976Z,41.90
2018-11-29T22:53:12.803Z,41.80
2018-11-29T22:55:39.028Z,41.80
2018-11-29T22:58:05.257Z,41.90
2018-11-29T23:00:31.495Z,41.80
2018-11-29T23:02:57.636Z,41.90
2018-11-29T23:05:23.947Z,41.90
2018-11-29T23:07:50.096Z,41.80
2018-11-29T23:10:16.405Z,41.80
2018-11-29T23:12:42.632Z,41.80
2018-11-29T23:15:08.855Z,41.80
2018-11-29T23:17:35.092Z,41.90
2018-11-29T23:20:01.241Z,41.80
2018-11-29T23:22:27.541Z,41.80
2018-11-29T23:24:53.692Z,41.80
2018-11-29T23:27:20.000Z,41.90
2018-11-29T23:29:46.144Z,41.80
2018-11-29T23:32:12.316Z,41.80
2018-11-29T23:34:38.687Z,41.80
2018-11-29T23:37:04.916Z,41.90
2018-11-29T23:39:31.147Z,41.80
2018-11-29T23:41:57.364Z,41.80
2018-11-29T23:44:23.600Z,41.80
2018-11-29T23:46:49.824Z,41.80
2018-11-29T23:49:15.989Z,41.80
2018-11-29T23:51:42.279Z,41.80
2018-11-29T23:54:08.560Z,41.80
2018-11-29T23:56:36.212Z,41.80
2018-11-29T23:59:04.031Z,41.90
